createdAt,value
2023-09-15T00:01:19.804Z,1.30
2023-09-15T00:04:21.769Z,1.38
2023-09-15T00:07:23.703Z,1.40
2023-09-15T00:10:25.936Z,1.50
2023-09-15T00:13:28.563Z,1.45
2023-09-15T00:16:31.433Z,1.20
2023-09-15T00:19:33.616Z,1.38
2023-09-15T00:22:36.140Z,1.40
2023-09-15T00:25:38.410Z,1.33
2023-09-15T00:28:40.931Z,1.33
2023-09-15T00:31:43.133Z,1.15
2023-09-15T00:34:45.012Z,1.30
2023-09-15T00:37:47.719Z,1.40
2023-09-15T00:40:49.582Z,1.50
2023-09-15T00:43:52.466Z,1.30
2023-09-15T00:46:55.576Z,1.40
2023-09-15T00:49:57.769Z,1.40
2023-09-15T00:53:11.980Z,1.20
2023-09-15T00:56:14.346Z,1.55
2023-09-15T00:59:16.511Z,1.40
2023-09-15T01:02:18.993Z,1.30
2023-09-15T01:05:25.919Z,1.40
2023-09-15T01:08:27.851Z,1.23
2023-09-15T01:11:29.758Z,1.20
2023-09-15T01:14:31.899Z,1.30
2023-09-15T01:17:56.101Z,1.60
2023-09-15T01:21:06.996Z,1.20
2023-09-15T01:24:11.611Z,1.25
2023-09-15T01:27:17.182Z,1.23
2023-09-15T01:30:20.726Z,1.25
2023-09-15T01:33:22.925Z,1.20
2023-09-15T01:36:24.931Z,1.30
2023-09-15T01:39:31.574Z,1.10
2023-09-15T01:42:34.119Z,1.20
2023-09-15T01:45:35.988Z,1.17
2023-09-15T01:48:38.329Z,1.35
2023-09-15T01:51:40.394Z,1.23
2023-09-15T01:54:42.779Z,1.15
2023-09-15T01:57:44.685Z,1.30
2023-09-15T02:00:47.313Z,1.10
2023-09-15T02:03:49.639Z,1.20
2023-09-15T02:06:51.632Z,1.23
2023-09-15T02:09:53.557Z,1.10
2023-09-15T02:12:55.457Z,1.10
2023-09-15T02:15:57.441Z,1.40
2023-09-15T02:18:59.522Z,1.33
2023-09-15T02:22:01.412Z,1.30
2023-09-15T02:25:03.385Z,1.30
2023-09-15T02:28:06.558Z,1.25
2023-09-15T02:31:08.640Z,1.15
2023-09-15T02:34:11.256Z,1.15
2023-09-15T02:37:16.301Z,1.40
2023-09-15T02:40:18.817Z,1.13
2023-09-15T02:43:20.776Z,1.20
2023-09-15T02:46:23.294Z,1.40
2023-09-15T02:49:25.327Z,1.35
2023-09-15T02:52:27.287Z,1.15
2023-09-15T02:55:29.134Z,1.15
2023-09-15T02:58:31.499Z,1.23
2023-09-15T03:01:33.481Z,1.30
2023-09-15T03:04:35.529Z,1.00
2023-09-15T03:07:40.867Z,1.20
2023-09-15T03:10:45.443Z,1.23
2023-09-15T03:13:47.471Z,1.30
2023-09-15T03:16:49.536Z,1.15
2023-09-15T03:19:51.459Z,1.20
2023-09-15T03:22:53.910Z,1.08
2023-09-15T03:26:04.270Z,1.10
2023-09-15T03:29:09.490Z,1.15
2023-09-15T03:32:11.410Z,1.27
2023-09-15T03:35:13.278Z,1.17
2023-09-15T03:38:15.167Z,1.15
2023-09-15T03:41:17.037Z,1.08
2023-09-15T03:44:19.028Z,1.23
2023-09-15T03:47:21.419Z,1.00
2023-09-15T03:50:23.583Z,1.20
2023-09-15T03:53:26.982Z,1.10
2023-09-15T03:56:28.988Z,1.20
2023-09-15T03:59:30.881Z,1.13
2023-09-15T04:02:33.229Z,1.23
2023-09-15T04:05:35.824Z,1.25
2023-09-15T04:08:37.970Z,1.08
2023-09-15T04:11:42.059Z,1.50
2023-09-15T04:14:43.882Z,1.30
2023-09-15T04:17:45.956Z,1.50
2023-09-15T04:20:51.133Z,1.27
2023-09-15T04:23:53.231Z,1.40
2023-09-15T04:26:55.164Z,1.10
2023-09-15T04:29:58.007Z,1.27
2023-09-15T04:33:06.027Z,1.00
2023-09-15T04:36:08.390Z,1.10
2023-09-15T04:39:12.281Z,1.20
2023-09-15T04:42:14.211Z,1.30
2023-09-15T04:45:16.557Z,1.00
2023-09-15T04:48:19.572Z,1.10
2023-09-15T04:51:21.613Z,1.30
2023-09-15T04:54:23.545Z,1.10
2023-09-15T04:57:26.137Z,1.27
2023-09-15T05:00:30.638Z,1.30
2023-09-15T05:03:34.762Z,1.75
2023-09-15T05:06:36.918Z,1.45
2023-09-15T05:09:39.201Z,1.10
2023-09-15T05:12:41.141Z,1.10
2023-09-15T05:15:44.203Z,1.40
2023-09-15T05:18:46.752Z,1.25
2023-09-15T05:21:48.899Z,0.98
2023-09-15T05:24:50.859Z,1.10
2023-09-15T05:27:53.738Z,1.20
2023-09-15T05:31:01.008Z,0.90
2023-09-15T05:34:05.702Z,1.02
2023-09-15T05:37:08.312Z,1.23
2023-09-15T05:40:11.048Z,1.05
2023-09-15T05:43:13.247Z,1.20
2023-09-15T05:46:15.112Z,1.13
2023-09-15T05:49:17.051Z,0.90
2023-09-15T05:52:19.129Z,1.17
2023-09-15T05:55:21.062Z,1.05
2023-09-15T05:58:22.976Z,1.15
2023-09-15T06:01:25.188Z,1.10
2023-09-15T06:04:27.210Z,0.88
2023-09-15T06:07:29.191Z,0.90
2023-09-15T06:10:31.115Z,1.00
2023-09-15T06:13:33.329Z,1.00
2023-09-15T06:16:37.581Z,0.90
2023-09-15T06:19:39.715Z,0.90
2023-09-15T06:22:41.574Z,0.80
2023-09-15T06:25:45.998Z,1.00
2023-09-15T06:28:48.545Z,0.90
2023-09-15T06:31:53.561Z,0.70
2023-09-15T06:34:55.893Z,0.93
2023-09-15T06:37:57.882Z,0.80
2023-09-15T06:41:02.350Z,1.10
2023-09-15T06:44:04.784Z,0.80
2023-09-15T06:47:07.424Z,0.80
2023-09-15T06:50:10.668Z,0.80
2023-09-15T06:53:12.769Z,1.58
2023-09-15T06:56:14.652Z,1.25
2023-09-15T06:59:16.534Z,0.80
2023-09-15T07:02:19.112Z,0.90
2023-09-15T07:05:21.481Z,0.82
2023-09-15T07:08:23.303Z,1.00
2023-09-15T07:11:26.457Z,0.90
2023-09-15T07:14:29.358Z,1.00
2023-09-15T07:17:31.358Z,0.90
2023-09-15T07:20:33.332Z,0.82
2023-09-15T07:23:35.149Z,1.00
2023-09-15T07:26:37.139Z,0.82
2023-09-15T07:29:39.484Z,1.00
2023-09-15T07:32:41.399Z,1.13
2023-09-15T07:35:43.490Z,0.90
2023-09-15T07:38:45.338Z,0.70
2023-09-15T07:41:47.320Z,1.00
2023-09-15T07:44:49.204Z,0.90
2023-09-15T07:47:51.258Z,0.80
2023-09-15T07:50:53.194Z,0.90
2023-09-15T07:53:55.916Z,1.05
2023-09-15T07:56:57.892Z,0.95
2023-09-15T08:00:00.644Z,0.80
2023-09-15T08:03:02.708Z,1.10
2023-09-15T08:06:04.771Z,1.15
2023-09-15T08:09:06.746Z,0.90
2023-09-15T08:12:08.704Z,0.63
2023-09-15T08:15:11.513Z,0.90
2023-09-15T08:18:15.373Z,0.88
2023-09-15T08:21:17.310Z,0.80
2023-09-15T08:24:21.372Z,0.82
2023-09-15T08:27:23.584Z,1.15
2023-09-15T08:30:25.751Z,0.80
2023-09-15T08:33:28.685Z,0.90
2023-09-15T08:36:30.638Z,0.80
2023-09-15T08:39:32.502Z,0.60
2023-09-15T08:42:34.662Z,0.88
2023-09-15T08:45:38.755Z,0.75
2023-09-15T08:48:42.367Z,0.80
2023-09-15T08:51:45.660Z,0.70
2023-09-15T08:54:48.078Z,1.00
2023-09-15T08:57:50.867Z,0.90
2023-09-15T09:00:56.130Z,0.80
2023-09-15T09:03:58.485Z,0.88
2023-09-15T09:07:02.952Z,1.02
2023-09-15T09:10:05.504Z,0.70
2023-09-15T09:13:07.633Z,0.70
2023-09-15T09:16:11.793Z,1.38
2023-09-15T09:19:14.425Z,1.00
2023-09-15T09:22:20.632Z,0.90
2023-09-15T09:25:27.199Z,0.95
2023-09-15T09:28:29.066Z,0.90
2023-09-15T09:31:31.418Z,1.02
2023-09-15T09:34:46.885Z,0.80
2023-09-15T09:37:50.108Z,0.77
2023-09-15T09:40:51.988Z,1.20
2023-09-15T09:43:53.941Z,0.90
2023-09-15T09:46:57.548Z,1.00
2023-09-15T09:49:59.554Z,1.10
2023-09-15T09:53:08.879Z,1.00
2023-09-15T09:56:11.038Z,1.05
2023-09-15T09:59:12.930Z,1.00
2023-09-15T10:02:15.053Z,1.05
2023-09-15T10:05:16.992Z,0.70
2023-09-15T10:08:19.771Z,0.90
2023-09-15T10:11:22.066Z,0.82
2023-09-15T10:14:25.201Z,0.80
2023-09-15T10:17:28.514Z,1.00
2023-09-15T10:20:31.599Z,0.80
2023-09-15T10:23:34.790Z,0.90
2023-09-15T10:26:42.940Z,0.80
2023-09-15T10:29:46.700Z,0.75
2023-09-15T10:32:49.703Z,0.70
2023-09-15T10:35:51.742Z,0.73
2023-09-15T10:38:53.735Z,0.80
2023-09-15T10:42:06.153Z,0.88
2023-09-15T10:45:12.742Z,1.00
2023-09-15T10:48:14.693Z,1.00
2023-09-15T10:51:19.508Z,1.10
2023-09-15T10:54:22.264Z,0.90
2023-09-15T10:57:24.510Z,0.80
2023-09-15T11:00:26.871Z,0.88
2023-09-15T11:03:29.871Z,0.77
2023-09-15T11:06:33.583Z,0.90
2023-09-15T11:09:35.701Z,0.80
2023-09-15T11:12:37.656Z,1.00
2023-09-15T11:15:39.904Z,1.10
2023-09-15T11:18:41.793Z,0.88
2023-09-15T11:21:45.004Z,0.80
2023-09-15T11:24:46.825Z,0.70
2023-09-15T11:27:50.530Z,0.60
2023-09-15T11:30:53.910Z,0.70
2023-09-15T11:33:57.936Z,0.70
2023-09-15T11:37:01.350Z,0.90
2023-09-15T11:40:04.399Z,0.80
2023-09-15T11:43:06.194Z,0.90
2023-09-15T11:46:10.996Z,0.95
2023-09-15T11:49:13.434Z,0.80
2023-09-15T11:52:15.881Z,0.88
2023-09-15T11:55:23.848Z,0.93
2023-09-15T11:58:26.042Z,0.60
2023-09-15T12:01:29.983Z,0.80
2023-09-15T12:04:32.209Z,0.70
2023-09-15T12:07:34.274Z,0.70
2023-09-15T12:10:36.270Z,0.70
2023-09-15T12:13:38.306Z,0.60
2023-09-15T12:16:40.825Z,0.80
2023-09-15T12:19:42.642Z,0.60
2023-09-15T12:22:45.492Z,0.80
2023-09-15T12:25:47.417Z,0.57
2023-09-15T12:28:50.237Z,0.80
2023-09-15T12:31:52.654Z,0.80
2023-09-15T12:34:55.425Z,0.70
2023-09-15T12:37:57.794Z,0.60
2023-09-15T12:40:59.606Z,0.80
2023-09-15T12:44:01.456Z,0.70
2023-09-15T12:47:05.649Z,0.80
2023-09-15T12:50:08.055Z,1.00
2023-09-15T12:53:10.018Z,0.70
2023-09-15T12:56:12.044Z,0.80
2023-09-15T12:59:14.469Z,0.80
2023-09-15T13:02:16.521Z,0.85
2023-09-15T13:05:18.641Z,0.70
2023-09-15T13:08:20.639Z,0.73
2023-09-15T13:11:22.453Z,0.98
2023-09-15T13:14:24.325Z,0.80
2023-09-15T13:17:26.252Z,0.93
2023-09-15T13:20:28.126Z,0.70
2023-09-15T13:23:29.993Z,0.90
2023-09-15T13:26:32.261Z,0.90
2023-09-15T13:29:34.286Z,0.80
2023-09-15T13:32:36.139Z,0.82
2023-09-15T13:35:37.954Z,0.90
2023-09-15T13:38:39.945Z,1.02
2023-09-15T13:41:41.742Z,1.10
2023-09-15T13:44:43.673Z,1.00
2023-09-15T13:47:45.690Z,1.10
2023-09-15T13:50:48.665Z,1.00
2023-09-15T13:53:50.777Z,0.90
2023-09-15T13:56:52.808Z,1.30
2023-09-15T13:59:54.854Z,0.98
2023-09-15T14:02:57.226Z,1.10
2023-09-15T14:05:59.434Z,1.20
2023-09-15T14:09:01.297Z,1.00
2023-09-15T14:12:04.045Z,1.08
2023-09-15T14:15:10.567Z,1.13
2023-09-15T14:18:13.861Z,1.00
2023-09-15T14:21:17.472Z,1.30
2023-09-15T14:24:19.952Z,1.17
2023-09-15T14:27:22.152Z,1.45
2023-09-15T14:30:24.367Z,1.35
2023-09-15T14:33:26.210Z,1.70
2023-09-15T14:36:28.048Z,1.35
2023-09-15T14:39:30.052Z,1.20
2023-09-15T14:42:33.138Z,1.10
2023-09-15T14:45:35.179Z,1.08
2023-09-15T14:48:37.136Z,1.00
2023-09-15T14:51:40.136Z,1.00
2023-09-15T14:54:42.104Z,1.10
2023-09-15T14:57:44.007Z,1.10
2023-09-15T15:00:46.019Z,1.10
2023-09-15T15:03:47.913Z,1.20
2023-09-15T15:06:50.229Z,1.30
2023-09-15T15:09:52.266Z,1.30
2023-09-15T15:12:54.142Z,1.20
2023-09-15T15:15:56.331Z,1.20
2023-09-15T15:19:05.758Z,1.00
2023-09-15T15:22:09.860Z,1.10
2023-09-15T15:25:11.942Z,1.30
2023-09-15T15:28:13.815Z,1.20
2023-09-15T15:31:18.207Z,1.02
2023-09-15T15:34:19.951Z,1.25
2023-09-15T15:37:23.399Z,1.25
2023-09-15T15:40:25.264Z,1.30
2023-09-15T15:43:27.365Z,1.20
2023-09-15T15:46:29.259Z,1.95
2023-09-15T15:49:32.026Z,1.15
2023-09-15T15:52:36.759Z,1.35
2023-09-15T15:55:38.592Z,1.17
2023-09-15T15:58:40.396Z,1.20
2023-09-15T16:01:42.249Z,1.20
2023-09-15T16:04:46.237Z,1.10
2023-09-15T16:07:48.059Z,1.10
2023-09-15T16:10:49.944Z,1.10
2023-09-15T16:13:51.845Z,1.10
2023-09-15T16:16:54.219Z,1.75
2023-09-15T16:19:58.247Z,1.90
2023-09-15T16:23:00.138Z,2.00
2023-09-15T16:26:04.990Z,1.70
2023-09-15T16:29:07.203Z,1.45
2023-09-15T16:32:09.227Z,1.60
2023-09-15T16:35:12.256Z,1.30
2023-09-15T16:38:15.230Z,1.60
2023-09-15T16:41:17.166Z,1.40
2023-09-15T16:44:19.019Z,1.80
2023-09-15T16:47:28.645Z,1.52
2023-09-15T16:50:30.693Z,1.73
2023-09-15T16:53:32.605Z,1.50
2023-09-15T16:56:34.449Z,1.30
2023-09-15T16:59:36.363Z,1.70
2023-09-15T17:02:38.785Z,2.10
2023-09-15T17:05:41.024Z,3.97
2023-09-15T17:08:42.998Z,2.80
2023-09-15T17:11:44.885Z,3.10
2023-09-15T17:14:48.114Z,2.13
2023-09-15T17:17:50.024Z,1.77
2023-09-15T17:20:52.014Z,2.22
2023-09-15T17:23:53.965Z,2.00
2023-09-15T17:26:56.899Z,1.50
2023-09-15T17:29:58.764Z,1.80
2023-09-15T17:33:01.602Z,1.30
2023-09-15T17:36:03.728Z,1.48
2023-09-15T17:39:06.410Z,1.48
2023-09-15T17:42:09.382Z,1.80
2023-09-15T17:45:12.274Z,1.40
2023-09-15T17:48:14.280Z,1.50
2023-09-15T17:51:16.163Z,2.75
2023-09-15T17:54:22.617Z,3.30
2023-09-15T17:57:24.792Z,2.40
2023-09-15T18:00:27.074Z,1.80
2023-09-15T18:03:29.198Z,1.50
2023-09-15T18:06:31.224Z,1.70
2023-09-15T18:09:35.352Z,2.22
2023-09-15T18:12:37.752Z,2.10
2023-09-15T18:15:39.795Z,1.83
2023-09-15T18:18:42.313Z,1.92
2023-09-15T18:21:44.231Z,1.65
2023-09-15T18:24:48.193Z,1.70
2023-09-15T18:27:50.125Z,1.38
2023-09-15T18:30:52.985Z,1.60
2023-09-15T18:33:56.316Z,1.40
2023-09-15T18:36:59.943Z,1.80
2023-09-15T18:40:01.827Z,1.40
2023-09-15T18:43:03.950Z,1.40
2023-09-15T18:46:06.351Z,1.55
2023-09-15T18:49:10.177Z,1.40
2023-09-15T18:52:12.067Z,1.50
2023-09-15T18:55:14.315Z,1.40
2023-09-15T18:58:16.262Z,1.40
2023-09-15T19:01:18.105Z,1.30
2023-09-15T19:04:20.004Z,1.60
2023-09-15T19:07:21.862Z,1.70
2023-09-15T19:10:24.455Z,1.45
2023-09-15T19:13:33.518Z,1.75
2023-09-15T19:16:36.125Z,1.42
2023-09-15T19:19:37.997Z,1.30
2023-09-15T19:22:40.541Z,1.50
2023-09-15T19:25:43.063Z,1.60
2023-09-15T19:28:47.900Z,1.50
2023-09-15T19:31:49.945Z,1.30
2023-09-15T19:34:52.636Z,1.60
2023-09-15T19:37:54.471Z,1.60
2023-09-15T19:40:56.323Z,1.25
2023-09-15T19:43:58.939Z,1.70
2023-09-15T19:47:00.900Z,1.40
2023-09-15T19:50:03.755Z,1.67
2023-09-15T19:53:06.780Z,1.30
2023-09-15T19:56:08.719Z,1.70
2023-09-15T19:59:10.586Z,1.77
2023-09-15T20:02:12.999Z,1.70
2023-09-15T20:05:15.737Z,1.63
2023-09-15T20:08:17.598Z,1.50
2023-09-15T20:11:19.494Z,1.83
2023-09-15T20:14:21.850Z,1.80
2023-09-15T20:17:26.465Z,1.50
2023-09-15T20:20:28.319Z,1.90
2023-09-15T20:23:30.891Z,1.60
2023-09-15T20:26:32.699Z,1.50
2023-09-15T20:29:34.577Z,1.60
2023-09-15T20:32:37.590Z,1.95
2023-09-15T20:35:44.839Z,2.28
2023-09-15T20:38:46.889Z,1.77
2023-09-15T20:41:49.079Z,1.70
2023-09-15T20:44:51.216Z,1.55
2023-09-15T20:47:54.600Z,1.58
2023-09-15T20:50:56.682Z,1.63
2023-09-15T20:53:58.496Z,1.88
2023-09-15T20:57:00.564Z,1.42
2023-09-15T21:00:02.720Z,1.90
2023-09-15T21:03:04.926Z,1.88
2023-09-15T21:06:06.841Z,1.60
2023-09-15T21:09:08.946Z,1.58
2023-09-15T21:12:16.057Z,1.50
2023-09-15T21:15:18.018Z,1.60
2023-09-15T21:18:20.050Z,1.85
2023-09-15T21:21:22.015Z,1.75
2023-09-15T21:24:23.928Z,1.70
2023-09-15T21:27:26.023Z,1.80
2023-09-15T21:30:28.023Z,2.00
2023-09-15T21:33:30.003Z,1.88
2023-09-15T21:36:31.984Z,2.00
2023-09-15T21:39:34.841Z,1.92
2023-09-15T21:42:36.796Z,1.90
2023-09-15T21:45:38.821Z,1.80
2023-09-15T21:48:40.886Z,1.98
2023-09-15T21:51:42.819Z,1.83
2023-09-15T21:54:44.697Z,1.65
2023-09-15T21:57:46.706Z,1.80
2023-09-15T22:00:49.860Z,1.80
2023-09-15T22:03:51.901Z,1.60
2023-09-15T22:06:53.830Z,1.80
2023-09-15T22:09:55.953Z,1.90
2023-09-15T22:12:58.633Z,1.70
2023-09-15T22:16:00.734Z,2.05
2023-09-15T22:19:02.749Z,1.98
2023-09-15T22:22:09.241Z,1.95
2023-09-15T22:25:11.954Z,1.60
2023-09-15T22:28:13.843Z,1.92
2023-09-15T22:31:16.285Z,1.80
2023-09-15T22:34:18.237Z,1.60
2023-09-15T22:37:20.842Z,2.13
2023-09-15T22:40:23.055Z,2.38
2023-09-15T22:43:24.913Z,1.73
2023-09-15T22:46:29.031Z,2.10
2023-09-15T22:49:31.965Z,1.70
2023-09-15T22:52:37.970Z,1.85
2023-09-15T22:55:39.995Z,1.83
2023-09-15T22:58:41.890Z,1.80
2023-09-15T23:01:44.037Z,1.88
2023-09-15T23:04:45.931Z,2.22
2023-09-15T23:07:47.859Z,2.40
2023-09-15T23:10:49.731Z,1.88
2023-09-15T23:13:51.591Z,1.83
2023-09-15T23:16:53.766Z,2.40
2023-09-15T23:19:58.468Z,2.03
2023-09-15T23:23:00.330Z,1.70
2023-09-15T23:26:02.430Z,2.03
2023-09-15T23:29:04.230Z,1.70
2023-09-15T23:32:07.230Z,1.90
2023-09-15T23:35:11.180Z,1.90
2023-09-15T23:38:13.464Z,2.10
2023-09-15T23:41:15.316Z,2.08
2023-09-15T23:44:17.809Z,1.80
2023-09-15T23:47:19.668Z,2.20
2023-09-15T23:50:25.158Z,1.98
2023-09-15T23:53:27.038Z,2.00
2023-09-15T23:56:29.513Z,2.00
2023-09-15T23:59:31.614Z,1.90
